Time;durP1;ratioP1;P1;durP2;ratioP2;P2;SDS_P1;SDS_P2;PMS_P1;PMS_P2;Temp;Humidity;BMP_temperature;BMP_pressure;BME280_temperature;BME280_humidity;BME280_pressure;Samples;Min_cycle;Max_cycle;Signal;HPM_P1;HPM_P2
2023/03/26 03:00:55;;;;;;;0.70;0.40;;;17.60;52.10;;;;;;5807609;22;45840;-61
2023/03/26 03:03:23;;;;;;;0.20;0.20;;;17.60;52.20;;;;;;4985346;28;45071;-60
2023/03/26 03:05:52;;;;;;;0.52;0.20;;;17.60;52.10;;;;;;5018355;28;46152;-60
2023/03/26 03:08:19;;;;;;;0.32;0.20;;;17.60;52.10;;;;;;5026544;28;47044;-60
2023/03/26 03:10:56;;;;;;;0.32;0.30;;;17.60;52.20;;;;;;5022782;27;45145;-62
2023/03/26 03:13:22;;;;;;;0.25;0.25;;;17.60;52.20;;;;;;5026216;28;45230;-62
2023/03/26 03:15:47;;;;;;;0.20;0.20;;;17.60;52.20;;;;;;5028001;28;45808;-63
2023/03/26 03:18:13;;;;;;;0.95;0.30;;;17.60;52.20;;;;;;5035740;28;46311;-62
2023/03/26 03:20:38;;;;;;;0.50;0.20;;;17.60;52.20;;;;;;5032980;28;45249;-61
2023/03/26 03:23:04;;;;;;;0.38;0.38;;;17.60;52.20;;;;;;5034281;28;45909;-59
2023/03/26 03:25:31;;;;;;;0.73;0.20;;;17.60;52.20;;;;;;5016309;28;45542;-63
2023/03/26 03:27:57;;;;;;;0.35;0.30;;;17.60;52.20;;;;;;5030541;28;46087;-61
2023/03/26 03:30:23;;;;;;;0.20;0.15;;;17.60;52.20;;;;;;5013563;28;45353;-60
2023/03/26 03:32:49;;;;;;;0.47;0.35;;;17.60;52.20;;;;;;5039760;28;45538;-60
2023/03/26 03:35:15;;;;;;;0.25;0.20;;;17.60;52.20;;;;;;5004814;28;45035;-61
2023/03/26 03:37:40;;;;;;;0.45;0.25;;;17.60;52.20;;;;;;5040666;28;45599;-61
2023/03/26 03:40:09;;;;;;;0.30;0.30;;;17.60;52.20;;;;;;5026853;28;45008;-61
2023/03/26 03:42:36;;;;;;;0.60;0.30;;;17.60;52.20;;;;;;5025026;28;45670;-59
2023/03/26 03:45:04;;;;;;;0.22;0.20;;;17.50;52.10;;;;;;5021896;28;44858;-60
2023/03/26 03:47:30;;;;;;;0.30;0.30;;;17.60;52.30;;;;;;5004282;28;45196;-60
2023/03/26 03:49:58;;;;;;;0.20;0.20;;;17.60;52.20;;;;;;5014783;28;44613;-61
2023/03/26 03:52:24;;;;;;;0.60;0.30;;;17.60;52.20;;;;;;5030643;28;44898;-60
2023/03/26 03:54:50;;;;;;;0.30;0.20;;;17.50;52.20;;;;;;5023330;28;44913;-60
2023/03/26 03:57:17;;;;;;;0.30;0.30;;;17.60;52.30;;;;;;5022200;28;46224;-61
2023/03/26 03:59:43;;;;;;;0.55;0.30;;;17.50;52.20;;;;;;5025471;28;45567;-64
2023/03/26 04:02:09;;;;;;;0.30;0.20;;;17.50;52.20;;;;;;5017218;28;44813;-61
2023/03/26 04:04:36;;;;;;;0.20;0.20;;;17.50;52.20;;;;;;5017394;28;45085;-61
2023/03/26 04:07:03;;;;;;;0.25;0.20;;;17.50;52.20;;;;;;5008467;28;45852;-61
2023/03/26 04:09:28;;;;;;;0.22;0.22;;;17.50;52.20;;;;;;5033303;28;44878;-61
2023/03/26 04:11:54;;;;;;;0.32;0.32;;;17.50;52.20;;;;;;5035812;28;44732;-60
2023/03/26 04:14:19;;;;;;;0.32;0.20;;;17.50;52.20;;;;;;5043282;28;44743;-60
2023/03/26 04:16:47;;;;;;;0.25;0.20;;;17.50;52.30;;;;;;5025239;28;45868;-60
2023/03/26 04:19:13;;;;;;;0.40;0.25;;;17.50;52.20;;;;;;5027498;28;44950;-60
2023/03/26 04:21:41;;;;;;;0.40;0.30;;;17.50;52.20;;;;;;5019240;28;45308;-60
2023/03/26 04:24:07;;;;;;;0.32;0.20;;;17.50;52.20;;;;;;5030168;28;46009;-61
2023/03/26 04:26:34;;;;;;;0.28;0.22;;;17.50;52.20;;;;;;5022379;28;46507;-62
2023/03/26 04:29:02;;;;;;;0.47;0.25;;;17.50;52.20;;;;;;5025891;28;45022;-61
2023/03/26 04:31:28;;;;;;;0.30;0.30;;;17.50;52.20;;;;;;4998280;28;44958;-63
2023/03/26 04:33:55;;;;;;;0.20;0.20;;;17.50;52.20;;;;;;5009090;28;44843;-60
2023/03/26 04:36:28;;;;;;;0.35;0.30;;;17.50;52.20;;;;;;5005890;28;45705;-61
2023/03/26 04:38:54;;;;;;;0.43;0.25;;;17.50;52.20;;;;;;5003519;28;44921;-58
2023/03/26 04:41:21;;;;;;;0.30;0.20;;;17.50;52.30;;;;;;5022662;28;45394;-61
2023/03/26 04:43:49;;;;;;;0.40;0.30;;;17.50;52.30;;;;;;5026619;28;44986;-59
2023/03/26 04:46:20;;;;;;;0.10;0.10;;;17.50;52.30;;;;;;5028979;28;45206;-60
2023/03/26 04:48:49;;;;;;;0.20;0.20;;;17.50;52.20;;;;;;5039026;28;45056;-59
2023/03/26 04:51:18;;;;;;;0.28;0.28;;;17.50;52.30;;;;;;5040220;28;44930;-60
2023/03/26 04:53:57;;;;;;;0.73;0.40;;;17.50;52.30;;;;;;5029558;28;45268;-60
2023/03/26 04:56:44;;;;;;;0.65;0.40;;;17.50;52.30;;;;;;5015003;28;45510;-60
2023/03/26 04:59:12;;;;;;;0.20;0.20;;;17.50;52.30;;;;;;5045280;28;45264;-60
2023/03/26 05:01:39;;;;;;;0.20;0.20;;;17.40;52.30;;;;;;4998717;28;45210;-60
2023/03/26 05:04:04;;;;;;;0.68;0.20;;;17.40;52.30;;;;;;5017720;28;45359;-60
2023/03/26 05:06:33;;;;;;;0.60;0.20;;;17.40;52.30;;;;;;5011876;28;45997;-57
2023/03/26 05:09:00;;;;;;;0.52;0.22;;;17.50;52.30;;;;;;5015228;28;45415;-63
2023/03/26 05:11:26;;;;;;;0.20;0.20;;;17.50;52.30;;;;;;5015804;28;45814;-60
2023/03/26 05:13:52;;;;;;;0.22;0.20;;;17.50;52.30;;;;;;5016602;28;44856;-62
2023/03/26 05:16:18;;;;;;;0.52;0.40;;;17.50;52.30;;;;;;5013617;28;46432;-62
2023/03/26 05:18:43;;;;;;;0.30;0.20;;;17.40;52.20;;;;;;5020914;28;45042;-61
2023/03/26 05:21:10;;;;;;;0.55;0.30;;;17.40;52.30;;;;;;5003367;28;45341;-63
2023/03/26 05:23:35;;;;;;;0.20;0.20;;;17.40;52.30;;;;;;5019946;28;44858;-60
2023/03/26 05:26:01;;;;;;;0.70;0.30;;;17.40;52.30;;;;;;5017578;28;45137;-61
2023/03/26 05:28:27;;;;;;;0.30;0.30;;;17.50;52.30;;;;;;5017366;28;46440;-61
2023/03/26 05:30:53;;;;;;;0.22;0.20;;;17.40;52.30;;;;;;5007222;28;44928;-61
2023/03/26 05:33:19;;;;;;;0.22;0.20;;;17.40;52.30;;;;;;5032964;28;45287;-61
2023/03/26 05:35:45;;;;;;;0.30;0.28;;;17.40;52.30;;;;;;5011709;28;45893;-61
2023/03/26 05:38:10;;;;;;;0.25;0.25;;;17.40;52.30;;;;;;5023046;28;45129;-61
2023/03/26 05:40:36;;;;;;;0.20;0.20;;;17.40;52.30;;;;;;5014952;28;45040;-61
2023/03/26 05:43:02;;;;;;;0.32;0.20;;;17.40;52.30;;;;;;5019183;28;45330;-60
2023/03/26 05:45:28;;;;;;;0.32;0.22;;;17.40;52.30;;;;;;5009622;28;46315;-61
2023/03/26 05:47:55;;;;;;;0.45;0.38;;;17.40;52.30;;;;;;5015214;28;45103;-61
2023/03/26 05:50:21;;;;;;;0.30;0.30;;;17.40;52.30;;;;;;5018184;28;45110;-61
2023/03/26 05:52:46;;;;;;;0.43;0.25;;;17.40;52.30;;;;;;5022512;28;46476;-61
2023/03/26 05:55:12;;;;;;;0.30;0.20;;;17.40;52.30;;;;;;5013597;28;46977;-60
2023/03/26 05:57:38;;;;;;;0.20;0.20;;;17.40;52.30;;;;;;5017678;28;45108;-60
2023/03/26 06:00:06;;;;;;;0.20;0.20;;;17.40;52.40;;;;;;4989921;28;44996;-62
2023/03/26 06:02:31;;;;;;;0.40;0.30;;;17.40;52.30;;;;;;5002070;28;45144;-62
2023/03/26 06:04:57;;;;;;;0.20;0.20;;;17.40;52.30;;;;;;5014634;28;46235;-62
2023/03/26 06:07:23;;;;;;;0.65;0.30;;;17.40;52.30;;;;;;5013519;28;44956;-61
2023/03/26 06:09:48;;;;;;;0.30;0.30;;;17.40;52.30;;;;;;5021254;28;45628;-61
2023/03/26 06:12:14;;;;;;;0.35;0.30;;;17.40;52.40;;;;;;5015508;28;45607;-61
2023/03/26 06:14:41;;;;;;;0.20;0.20;;;17.40;52.30;;;;;;5017320;28;45205;-63
2023/03/26 06:17:09;;;;;;;0.20;0.20;;;17.40;52.40;;;;;;5010159;28;45077;-61
2023/03/26 06:19:34;;;;;;;0.25;0.20;;;17.40;52.30;;;;;;5020177;28;44689;-60
2023/03/26 06:22:00;;;;;;;0.20;0.20;;;17.40;52.30;;;;;;5011265;28;45087;-59
2023/03/26 06:24:25;;;;;;;0.60;0.30;;;17.40;52.30;;;;;;5001820;28;45917;-62
2023/03/26 06:26:51;;;;;;;0.30;0.30;;;17.40;52.30;;;;;;5008904;28;45047;-61
2023/03/26 06:29:17;;;;;;;0.20;0.20;;;17.30;52.20;;;;;;5018689;28;44909;-61
2023/03/26 06:31:42;;;;;;;0.20;0.20;;;17.30;52.30;;;;;;5008138;28;45160;-61
2023/03/26 06:34:08;;;;;;;0.63;0.47;;;17.40;52.40;;;;;;5006253;28;45138;-61
2023/03/26 06:36:34;;;;;;;0.25;0.22;;;17.40;52.40;;;;;;5022891;28;45410;-61
2023/03/26 06:38:59;;;;;;;0.30;0.30;;;17.40;52.30;;;;;;5022186;28;44944;-62
2023/03/26 06:41:25;;;;;;;0.32;0.25;;;17.40;52.30;;;;;;5014684;28;44934;-59
2023/03/26 06:43:51;;;;;;;0.20;0.20;;;17.40;52.30;;;;;;5017002;28;46083;-60
2023/03/26 06:46:17;;;;;;;0.30;0.20;;;17.40;52.90;;;;;;5009919;28;45271;-62
2023/03/26 06:48:43;;;;;;;0.20;0.20;;;17.30;52.30;;;;;;5016126;28;45247;-63
2023/03/26 06:51:09;;;;;;;0.20;0.20;;;17.40;52.40;;;;;;5031283;28;44782;-60
2023/03/26 06:53:34;;;;;;;0.22;0.17;;;17.30;52.30;;;;;;5020764;28;45454;-63
2023/03/26 06:56:01;;;;;;;0.28;0.28;;;17.40;52.40;;;;;;5012946;28;44616;-61
2023/03/26 06:58:27;;;;;;;0.35;0.25;;;17.40;52.40;;;;;;5021020;28;44889;-61
2023/03/26 07:00:53;;;;;;;0.43;0.20;;;17.30;52.30;;;;;;5015716;28;45386;-61
2023/03/26 07:03:18;;;;;;;0.40;0.20;;;17.30;52.20;;;;;;5021118;28;46070;-60
2023/03/26 07:05:44;;;;;;;0.32;0.30;;;17.30;52.20;;;;;;5019019;28;44746;-61
2023/03/26 07:08:09;;;;;;;0.15;0.10;;;17.30;52.20;;;;;;5035263;28;45046;-62
2023/03/26 07:10:35;;;;;;;0.28;0.20;;;17.30;52.30;;;;;;5017133;28;45144;-62
2023/03/26 07:13:01;;;;;;;0.40;0.20;;;17.30;52.30;;;;;;5037269;28;44857;-61
2023/03/26 07:15:27;;;;;;;0.30;0.17;;;17.40;52.30;;;;;;5028512;28;44723;-61
2023/03/26 07:17:53;;;;;;;0.45;0.22;;;17.40;52.30;;;;;;4992666;28;44878;-61
2023/03/26 07:20:19;;;;;;;0.63;0.30;;;17.30;52.20;;;;;;5033512;27;45101;-62
2023/03/26 07:22:45;;;;;;;0.20;0.20;;;17.40;52.30;;;;;;5038614;28;45695;-61
2023/03/26 07:25:11;;;;;;;0.98;0.22;;;17.30;52.20;;;;;;5037329;28;45325;-58
2023/03/26 07:28:01;;;;;;;0.30;0.30;;;17.30;52.20;;;;;;5040030;28;45153;-61
2023/03/26 07:30:48;;;;;;;0.40;0.20;;;17.40;52.20;;;;;;5029252;28;45014;-63
2023/03/26 07:33:39;;;;;;;0.40;0.30;;;17.30;52.20;;;;;;5036601;28;45771;-61
2023/03/26 07:36:17;;;;;;;0.10;0.10;;;17.30;52.20;;;;;;5035543;28;44956;-60
2023/03/26 07:39:08;;;;;;;0.43;0.25;;;17.30;52.30;;;;;;5035316;28;44923;-61
2023/03/26 07:41:44;;;;;;;0.20;0.20;;;17.30;52.30;;;;;;5022262;28;44912;-61
2023/03/26 07:44:28;;;;;;;0.35;0.20;;;17.30;52.30;;;;;;5009354;28;46100;-61
2023/03/26 07:46:54;;;;;;;0.20;0.20;;;17.30;52.30;;;;;;5026175;28;45251;-65
2023/03/26 07:49:19;;;;;;;0.52;0.30;;;17.30;52.20;;;;;;5023651;28;45584;-61
2023/03/26 07:51:46;;;;;;;0.47;0.30;;;17.30;52.30;;;;;;4988924;28;45183;-63
2023/03/26 07:54:12;;;;;;;0.50;0.20;;;17.40;52.20;;;;;;5040041;28;45093;-61
2023/03/26 07:57:04;;;;;;;0.60;0.28;;;17.30;52.20;;;;;;5031552;27;45966;-61
2023/03/26 07:59:49;;;;;;;0.20;0.17;;;17.30;52.10;;;;;;5009495;28;45534;-61
2023/03/26 08:02:35;;;;;;;0.40;0.20;;;17.30;52.20;;;;;;4987427;28;45174;-60
2023/03/26 08:05:19;;;;;;;0.17;0.17;;;17.30;52.20;;;;;;4998967;28;45279;-60
2023/03/26 08:07:55;;;;;;;0.45;0.20;;;17.40;52.20;;;;;;5014341;28;45072;-63
2023/03/26 08:10:47;;;;;;;0.68;0.40;;;17.30;52.20;;;;;;4997234;28;45886;-63
2023/03/26 08:13:42;;;;;;;0.10;0.10;;;17.30;52.20;;;;;;4993103;28;44981;-62
2023/03/26 08:16:18;;;;;;;0.57;0.32;;;17.30;52.20;;;;;;4982426;28;46143;-61
2023/03/26 08:18:47;;;;;;;0.30;0.20;;;17.30;52.30;;;;;;4986395;28;45318;-62
2023/03/26 08:21:50;;;;;;;0.20;0.20;;;17.30;52.20;;;;;;4991468;28;45207;-61
2023/03/26 08:24:37;;;;;;;0.22;0.22;;;17.30;52.10;;;;;;4996015;28;44979;-61
2023/03/26 08:27:21;;;;;;;0.30;0.20;;;17.40;52.20;;;;;;4990031;28;46043;-62
2023/03/26 08:30:00;;;;;;;0.20;0.20;;;17.40;52.10;;;;;;5004256;28;45005;-63
2023/03/26 08:32:26;;;;;;;0.20;0.20;;;17.40;52.10;;;;;;4989286;28;45183;-61
2023/03/26 08:34:51;;;;;;;0.60;0.30;;;17.30;52.10;;;;;;4986114;28;44771;-62
2023/03/26 08:37:17;;;;;;;0.73;0.30;;;17.30;52.10;;;;;;4991912;28;46156;-61
2023/03/26 08:39:43;;;;;;;0.10;0.10;;;17.30;52.10;;;;;;4987219;28;45153;-63
2023/03/26 08:42:15;;;;;;;0.22;0.22;;;17.30;52.10;;;;;;4991719;28;44851;-61
2023/03/26 08:45:19;;;;;;;0.28;0.20;;;17.30;52.00;;;;;;4998212;28;45769;-61
2023/03/26 08:48:10;;;;;;;0.37;0.20;;;17.30;52.00;;;;;;4996487;28;46031;-63
2023/03/26 08:50:58;;;;;;;0.47;0.28;;;17.30;52.10;;;;;;4982280;28;45347;-62
2023/03/26 08:53:55;;;;;;;0.50;0.20;;;17.30;52.10;;;;;;5009295;28;45085;-62
2023/03/26 08:56:38;;;;;;;0.20;0.20;;;17.30;52.10;;;;;;4993930;28;44928;-62
2023/03/26 08:59:22;;;;;;;0.68;0.40;;;17.30;52.10;;;;;;4998019;28;46513;-60
2023/03/26 09:02:04;;;;;;;0.10;0.10;;;17.30;52.10;;;;;;5011234;28;45352;-61
2023/03/26 09:04:45;;;;;;;0.20;0.20;;;17.30;52.10;;;;;;5037089;28;45386;-61
2023/03/26 09:07:28;;;;;;;0.50;0.28;;;17.30;52.10;;;;;;5034545;28;44893;-61
2023/03/26 09:10:15;;;;;;;0.30;0.30;;;17.30;52.00;;;;;;5023116;27;46181;-63
2023/03/26 09:12:59;;;;;;;0.20;0.20;;;17.30;52.00;;;;;;5019997;28;45275;-60
2023/03/26 09:15:34;;;;;;;0.73;0.15;;;17.30;52.00;;;;;;5009529;28;46119;-61
2023/03/26 09:18:06;;;;;;;0.57;0.38;;;17.30;52.10;;;;;;5035509;28;45544;-60
2023/03/26 09:20:51;;;;;;;0.55;0.20;;;17.30;52.10;;;;;;5019762;28;46653;-61
2023/03/26 09:23:40;;;;;;;0.40;0.20;;;17.30;52.10;;;;;;5037696;28;45393;-60
2023/03/26 09:26:17;;;;;;;0.20;0.20;;;17.30;52.10;;;;;;5035020;28;45346;-60
2023/03/26 09:29:01;;;;;;;0.30;0.20;;;17.30;52.10;;;;;;5029767;28;45706;-60
2023/03/26 09:31:31;;;;;;;0.60;0.20;;;17.30;52.10;;;;;;5029060;28;44984;-61
2023/03/26 09:34:19;;;;;;;0.20;0.10;;;17.30;52.10;;;;;;5026030;28;45090;-61
2023/03/26 09:37:04;;;;;;;0.73;0.30;;;17.30;52.00;;;;;;5034031;28;45384;-61
2023/03/26 09:39:54;;;;;;;0.38;0.20;;;17.30;52.00;;;;;;5038213;27;44871;-61
2023/03/26 09:42:44;;;;;;;0.32;0.20;;;17.30;52.10;;;;;;5015922;28;46194;-60
2023/03/26 09:45:09;;;;;;;0.20;0.20;;;17.30;52.00;;;;;;4987939;28;45060;-65
2023/03/26 09:47:56;;;;;;;0.10;0.10;;;17.30;52.10;;;;;;5033045;28;45246;-61
2023/03/26 09:50:31;;;;;;;0.20;0.20;;;17.30;52.00;;;;;;5027177;28;46231;-61
2023/03/26 09:53:14;;;;;;;0.10;0.10;;;17.30;52.10;;;;;;5024235;28;46215;-60
2023/03/26 09:55:49;;;;;;;0.68;0.50;;;17.30;52.10;;;;;;5003253;28;44972;-59
2023/03/26 09:58:46;;;;;;;0.20;0.20;;;17.30;52.10;;;;;;5037517;28;44992;-60
2023/03/26 10:01:24;;;;;;;0.63;0.30;;;17.30;52.00;;;;;;5007802;28;44908;-61
2023/03/26 10:04:19;;;;;;;0.30;0.30;;;17.30;52.10;;;;;;5036327;28;46113;-60
2023/03/26 10:06:44;;;;;;;0.30;0.30;;;17.30;52.00;;;;;;5016855;28;45139;-60
2023/03/26 10:10:04;;;;;;;0.30;0.20;;;17.30;52.10;;;;;;5035326;28;45024;-60
2023/03/26 10:12:35;;;;;;;0.20;0.20;;;17.30;52.00;;;;;;4943089;28;46302;-61
2023/03/26 10:15:08;;;;;;;0.28;0.28;;;17.30;52.00;;;;;;5020258;28;45426;-60
2023/03/26 10:17:41;;;;;;;0.20;0.20;;;17.30;52.00;;;;;;4992808;28;45627;-60
2023/03/26 10:20:48;;;;;;;0.57;0.20;;;17.30;51.90;;;;;;5033807;28;44919;-62
2023/03/26 10:23:32;;;;;;;0.35;0.15;;;17.30;52.00;;;;;;5001375;28;44898;-60
2023/03/26 10:25:57;;;;;;;0.20;0.20;;;17.30;52.10;;;;;;4997806;28;47579;-60
2023/03/26 10:29:01;;;;;;;0.30;0.20;;;17.30;52.10;;;;;;5038484;28;44874;-60
2023/03/26 10:32:20;;;;;;;0.20;0.20;;;17.30;52.00;;;;;;5027429;28;45170;-59
2023/03/26 10:34:51;;;;;;;0.10;0.10;;;17.30;52.00;;;;;;4958373;28;44991;-59
2023/03/26 10:37:26;;;;;;;0.52;0.20;;;17.30;52.00;;;;;;4995046;28;46887;-59
2023/03/26 10:40:04;;;;;;;0.52;0.30;;;17.30;52.00;;;;;;5018448;28;44942;-59
2023/03/26 10:42:53;;;;;;;1.00;0.35;;;17.30;52.00;;;;;;4995975;28;44941;-61
2023/03/26 10:45:29;;;;;;;0.22;0.22;;;17.30;52.00;;;;;;4995681;28;45747;-62
2023/03/26 10:48:06;;;;;;;0.35;0.30;;;17.30;52.00;;;;;;5025752;28;46489;-59
2023/03/26 10:50:52;;;;;;;0.40;0.20;;;17.30;52.00;;;;;;5032510;28;45574;-59
2023/03/26 10:54:05;;;;;;;0.10;0.10;;;17.30;52.00;;;;;;5034101;28;45059;-60
2023/03/26 10:56:34;;;;;;;0.20;0.20;;;17.30;52.00;;;;;;5008469;28;45143;-59
2023/03/26 10:59:07;;;;;;;0.20;0.20;;;17.30;52.00;;;;;;5041956;28;45232;-60
2023/03/26 11:01:41;;;;;;;0.35;0.20;;;17.30;52.00;;;;;;5025902;28;45382;-60
2023/03/26 11:04:29;;;;;;;0.38;0.30;;;17.30;51.90;;;;;;5035326;28;45148;-60
2023/03/26 11:07:19;;;;;;;0.20;0.20;;;17.30;52.00;;;;;;5032227;28;44998;-61
2023/03/26 11:10:07;;;;;;;0.20;0.20;;;17.30;51.90;;;;;;5016614;28;45604;-59
2023/03/26 11:12:57;;;;;;;0.20;0.20;;;17.30;51.90;;;;;;5023877;28;44984;-61
2023/03/26 11:15:23;;;;;;;0.30;0.30;;;17.30;51.90;;;;;;5018016;28;45222;-61
2023/03/26 11:18:11;;;;;;;0.32;0.30;;;17.30;51.90;;;;;;5034405;28;44825;-60
2023/03/26 11:20:44;;;;;;;0.43;0.20;;;17.30;52.00;;;;;;5003053;28;45197;-58
2023/03/26 11:23:33;;;;;;;0.20;0.20;;;17.30;52.00;;;;;;5003126;28;45246;-62
2023/03/26 11:26:28;;;;;;;0.22;0.22;;;17.30;51.90;;;;;;5032041;28;45363;-60
2023/03/26 11:29:18;;;;;;;0.22;0.20;;;17.30;51.80;;;;;;5013587;28;46481;-61
2023/03/26 11:31:50;;;;;;;0.40;0.15;;;17.30;51.90;;;;;;5026429;28;46272;-60
2023/03/26 11:34:18;;;;;;;0.40;0.30;;;17.30;51.90;;;;;;5021420;28;45200;-61
2023/03/26 11:36:52;;;;;;;0.32;0.20;;;17.30;51.90;;;;;;5016459;28;45240;-60
2023/03/26 11:39:23;;;;;;;0.20;0.20;;;17.30;51.90;;;;;;5024020;28;45144;-61
2023/03/26 11:41:49;;;;;;;0.10;0.10;;;17.30;51.90;;;;;;5024645;28;46382;-61
2023/03/26 11:44:23;;;;;;;0.20;0.20;;;17.30;51.90;;;;;;4993187;28;44959;-61
2023/03/26 11:46:50;;;;;;;0.30;0.20;;;17.30;51.90;;;;;;4994124;28;44970;-60
2023/03/26 11:49:17;;;;;;;0.73;0.30;;;17.30;51.90;;;;;;5028118;27;45730;-62
2023/03/26 11:51:43;;;;;;;1.02;0.35;;;17.30;51.90;;;;;;5020095;28;46121;-61
2023/03/26 11:54:10;;;;;;;0.30;0.20;;;17.30;51.90;;;;;;5009684;28;44927;-60
2023/03/26 11:56:46;;;;;;;0.40;0.30;;;17.30;51.90;;;;;;5021700;28;44984;-59
2023/03/26 11:59:17;;;;;;;0.70;0.30;;;17.30;51.80;;;;;;5035866;28;45153;-60
2023/03/26 12:01:49;;;;;;;0.10;0.10;;;17.30;51.80;;;;;;5002852;28;45204;-60
2023/03/26 12:04:15;;;;;;;0.20;0.20;;;17.30;51.90;;;;;;5007932;28;45188;-60
2023/03/26 12:06:56;;;;;;;0.32;0.30;;;17.30;51.90;;;;;;5032012;28;44809;-61
2023/03/26 12:09:22;;;;;;;0.20;0.20;;;17.30;51.80;;;;;;5027406;28;44906;-60
2023/03/26 12:11:48;;;;;;;0.20;0.20;;;17.30;51.90;;;;;;5036411;27;45145;-60
2023/03/26 12:14:22;;;;;;;0.30;0.28;;;17.30;51.90;;;;;;5026598;28;44687;-61
2023/03/26 12:17:05;;;;;;;0.43;0.20;;;17.30;51.80;;;;;;5018465;28;45090;-60
2023/03/26 12:19:42;;;;;;;0.20;0.20;;;17.30;51.80;;;;;;5015354;28;45530;-60
2023/03/26 12:22:35;;;;;;;0.20;0.20;;;17.30;51.80;;;;;;4997406;28;46263;-61
2023/03/26 12:25:22;;;;;;;0.32;0.20;;;17.30;51.80;;;;;;5040014;28;46238;-61
2023/03/26 12:27:57;;;;;;;0.20;0.20;;;17.30;51.80;;;;;;5020403;28;45023;-61
2023/03/26 12:30:25;;;;;;;0.32;0.30;;;17.30;51.70;;;;;;5029644;28;45507;-60
2023/03/26 12:32:52;;;;;;;0.52;0.30;;;17.30;51.70;;;;;;5032735;28;46022;-60
2023/03/26 12:35:28;;;;;;;0.10;0.10;;;17.40;51.80;;;;;;5006789;28;45059;-61
2023/03/26 12:38:20;;;;;;;0.20;0.20;;;17.30;51.60;;;;;;5007818;28;45059;-61
2023/03/26 12:40:46;;;;;;;0.32;0.20;;;17.30;51.60;;;;;;5025837;28;45322;-61
2023/03/26 12:43:35;;;;;;;0.20;0.10;;;17.30;51.60;;;;;;5032801;28;45366;-60
2023/03/26 12:46:00;;;;;;;0.35;0.35;;;17.30;51.60;;;;;;5018577;28;45085;-61
2023/03/26 12:48:27;;;;;;;0.28;0.22;;;17.30;51.70;;;;;;5023937;28;45273;-60
2023/03/26 12:51:14;;;;;;;0.32;0.30;;;17.30;51.60;;;;;;5021890;28;45802;-61
2023/03/26 12:54:02;;;;;;;0.17;0.17;;;17.30;51.60;;;;;;5035812;28;46121;-61
2023/03/26 12:56:41;;;;;;;0.30;0.30;;;17.40;51.70;;;;;;5022358;27;45418;-61
2023/03/26 12:59:32;;;;;;;0.10;0.10;;;17.30;51.70;;;;;;5015302;28;44943;-61
2023/03/26 13:02:57;;;;;;;0.38;0.20;;;17.30;51.70;;;;;;5015837;28;45015;-61
2023/03/26 13:05:50;;;;;;;0.20;0.20;;;17.30;51.80;;;;;;4939258;28;45188;-61
2023/03/26 13:08:45;;;;;;;0.15;0.13;;;17.30;51.80;;;;;;4941949;28;46303;-61
2023/03/26 13:11:37;;;;;;;0.22;0.20;;;17.30;51.80;;;;;;5016044;28;45096;-61
2023/03/26 13:14:25;;;;;;;0.73;0.43;;;17.30;52.30;;;;;;5019878;28;44832;-62
2023/03/26 13:17:12;;;;;;;0.20;0.20;;;17.30;51.70;;;;;;5014699;28;46101;-57
2023/03/26 13:19:56;;;;;;;0.60;0.25;;;17.30;51.80;;;;;;5018906;28;44712;-59
2023/03/26 13:22:49;;;;;;;0.30;0.20;;;17.30;51.70;;;;;;5028257;28;45134;-61
2023/03/26 13:25:36;;;;;;;0.20;0.20;;;17.30;51.60;;;;;;5033826;22;45396;-58
2023/03/26 13:28:27;;;;;;;0.10;0.10;;;17.30;51.70;;;;;;5007576;28;46433;-60
2023/03/26 13:30:56;;;;;;;0.50;0.20;;;17.40;51.60;;;;;;4965693;28;45029;-60
2023/03/26 13:33:49;;;;;;;0.45;0.20;;;17.40;51.70;;;;;;5015770;28;45138;-60
2023/03/26 13:36:15;;;;;;;0.30;0.20;;;17.40;51.60;;;;;;4992288;28;45286;-61
2023/03/26 13:38:50;;;;;;;0.13;0.10;;;17.40;51.70;;;;;;5027000;28;45316;-60
2023/03/26 13:41:34;;;;;;;0.20;0.20;;;17.30;51.70;;;;;;5002241;28;45235;-61
2023/03/26 13:44:16;;;;;;;0.30;0.20;;;17.40;51.70;;;;;;5009168;28;45362;-60
2023/03/26 13:46:45;;;;;;;0.23;0.23;;;17.40;51.60;;;;;;5009839;28;46340;-61
2023/03/26 13:49:14;;;;;;;0.50;0.30;;;17.40;51.70;;;;;;5001445;28;45770;-61
2023/03/26 13:51:53;;;;;;;0.20;0.20;;;17.40;51.60;;;;;;4989563;28;45524;-60
2023/03/26 13:54:30;;;;;;;0.30;0.30;;;17.40;51.60;;;;;;4985857;28;45427;-61
2023/03/26 13:57:14;;;;;;;0.20;0.20;;;17.40;51.60;;;;;;5000375;28;45558;-58
2023/03/26 13:59:47;;;;;;;0.20;0.20;;;17.40;51.60;;;;;;5003826;28;47427;-59
2023/03/26 14:02:25;;;;;;;0.10;0.10;;;17.50;51.60;;;;;;5006654;28;45355;-62
2023/03/26 14:04:53;;;;;;;0.40;0.10;;;17.50;51.60;;;;;;5006805;28;45586;-66
2023/03/26 14:07:25;;;;;;;0.20;0.20;;;17.50;51.50;;;;;;4988287;28;45883;-61
2023/03/26 14:10:04;;;;;;;0.55;0.25;;;17.50;51.50;;;;;;5018077;28;46071;-61
2023/03/26 14:13:27;;;;;;;0.43;0.17;;;17.50;51.50;;;;;;5012180;28;44921;-62
2023/03/26 14:16:17;;;;;;;0.10;0.10;;;17.50;51.50;;;;;;4919845;28;45688;-63
2023/03/26 14:19:21;;;;;;;0.20;0.20;;;17.50;51.50;;;;;;4912089;28;45806;-59
2023/03/26 14:21:59;;;;;;;0.20;0.20;;;17.50;51.40;;;;;;4975959;28;46883;-60
2023/03/26 14:24:57;;;;;;;0.57;0.20;;;17.50;51.50;;;;;;5006063;28;45271;-62
2023/03/26 14:27:36;;;;;;;0.40;0.30;;;17.50;51.50;;;;;;5012712;28;45531;-59
2023/03/26 14:30:30;;;;;;;0.28;0.20;;;17.50;51.50;;;;;;5003737;28;45429;-63
2023/03/26 14:33:10;;;;;;;0.20;0.20;;;17.50;51.60;;;;;;5017434;28;45891;-61
2023/03/26 14:36:08;;;;;;;0.35;0.20;;;17.50;51.60;;;;;;4999553;28;45545;-60
2023/03/26 14:39:08;;;;;;;0.20;0.20;;;17.40;51.60;;;;;;4980772;28;45629;-60
2023/03/26 14:42:00;;;;;;;0.40;0.22;;;17.50;51.60;;;;;;5019766;28;45632;-59
2023/03/26 14:45:02;;;;;;;0.40;0.30;;;17.50;51.60;;;;;;5002380;28;45139;-60
2023/03/26 14:47:28;;;;;;;0.30;0.20;;;17.50;51.60;;;;;;4982817;28;45891;-60
2023/03/26 14:50:14;;;;;;;0.15;0.15;;;17.50;51.70;;;;;;4992234;28;45606;-60
2023/03/26 14:52:50;;;;;;;0.28;0.20;;;17.50;51.50;;;;;;4993735;28;45480;-60
2023/03/26 14:55:37;;;;;;;0.20;0.20;;;17.50;51.50;;;;;;5012372;28;45857;-60
2023/03/26 14:58:21;;;;;;;0.30;0.20;;;17.50;51.60;;;;;;5012506;28;45414;-60
2023/03/26 15:01:13;;;;;;;0.22;0.20;;;17.50;51.50;;;;;;5011138;28;45599;-61
2023/03/26 15:04:10;;;;;;;0.28;0.10;;;17.50;51.40;;;;;;4993356;28;44811;-60
2023/03/26 15:06:55;;;;;;;0.20;0.20;;;17.60;51.40;;;;;;4999896;28;47027;-59
2023/03/26 15:09:58;;;;;;;0.32;0.20;;;17.60;51.50;;;;;;5021858;28;45240;-60
2023/03/26 15:12:33;;;;;;;0.70;0.20;;;17.60;51.40;;;;;;5014886;28;45343;-61
2023/03/26 15:15:17;;;;;;;0.50;0.30;;;17.60;51.40;;;;;;5004756;28;45414;-61
2023/03/26 15:18:10;;;;;;;0.22;0.20;;;17.60;51.40;;;;;;5019701;28;45821;-60
2023/03/26 15:21:30;;;;;;;0.10;0.10;;;17.60;51.40;;;;;;5002040;28;45436;-59
2023/03/26 15:24:04;;;;;;;0.43;0.13;;;17.60;51.30;;;;;;5021543;28;45336;-60
2023/03/26 15:26:40;;;;;;;0.20;0.20;;;17.60;51.40;;;;;;4988729;28;45594;-60
2023/03/26 15:29:22;;;;;;;0.40;0.20;;;17.60;51.30;;;;;;5005592;28;45314;-60
2023/03/26 15:32:09;;;;;;;0.07;0.07;;;17.70;51.30;;;;;;4994697;28;44744;-60
2023/03/26 15:34:54;;;;;;;0.68;0.28;;;17.70;51.30;;;;;;5019394;28;45077;-61
2023/03/26 15:37:49;;;;;;;0.30;0.20;;;17.70;51.30;;;;;;5014145;28;45308;-59
2023/03/26 15:40:42;;;;;;;0.80;0.30;;;17.70;51.30;;;;;;4998237;22;45330;-60
2023/03/26 15:43:15;;;;;;;0.35;0.22;;;17.70;51.30;;;;;;4970919;28;45615;-60
2023/03/26 15:46:03;;;;;;;0.30;0.30;;;17.60;51.30;;;;;;4969444;22;45248;-61
2023/03/26 15:48:44;;;;;;;0.30;0.13;;;17.70;51.40;;;;;;4990206;28;45518;-62
2023/03/26 15:51:26;;;;;;;0.10;0.10;;;17.70;51.40;;;;;;4987961;28;46244;-61
2023/03/26 15:54:12;;;;;;;0.22;0.10;;;17.70;51.40;;;;;;4985922;28;45747;-61
2023/03/26 15:57:15;;;;;;;0.38;0.20;;;17.70;51.40;;;;;;4949779;28;45974;-61
2023/03/26 16:00:21;;;;;;;0.15;0.10;;;17.70;51.30;;;;;;4984518;28;45083;-60
2023/03/26 16:03:18;;;;;;;0.20;0.20;;;17.70;51.30;;;;;;4978467;28;46229;-60
2023/03/26 16:06:17;;;;;;;0.20;0.10;;;17.70;51.40;;;;;;4969199;28;44720;-61
2023/03/26 16:09:06;;;;;;;1.13;0.20;;;17.70;51.30;;;;;;4954431;28;44708;-60
2023/03/26 16:11:51;;;;;;;0.20;0.20;;;17.70;51.30;;;;;;4964480;28;45335;-60
2023/03/26 16:14:18;;;;;;;0.30;0.20;;;17.70;51.40;;;;;;4969967;28;49212;-60
2023/03/26 16:16:57;;;;;;;0.10;0.10;;;17.70;51.50;;;;;;4956564;28;45782;-59
2023/03/26 16:19:47;;;;;;;0.20;0.15;;;17.70;51.40;;;;;;4969434;28;44793;-60
2023/03/26 16:22:52;;;;;;;0.43;0.20;;;17.70;51.30;;;;;;4980934;28;45775;-59
2023/03/26 16:25:30;;;;;;;0.22;0.22;;;17.70;51.30;;;;;;4983234;28;45032;-60
2023/03/26 16:28:11;;;;;;;0.10;0.10;;;17.80;51.40;;;;;;4987800;28;45262;-59
2023/03/26 16:30:37;;;;;;;0.20;0.17;;;17.70;51.30;;;;;;4976442;28;45314;-61
2023/03/26 16:33:11;;;;;;;0.55;0.10;;;17.70;51.40;;;;;;4969590;28;46172;-61
2023/03/26 16:35:41;;;;;;;0.20;0.20;;;17.70;51.40;;;;;;4965159;28;46053;-61
2023/03/26 16:38:13;;;;;;;0.38;0.30;;;17.70;51.50;;;;;;4972554;28;45381;-61